createdAt,value
2023-01-20T00:01:12.337Z,23.10
2023-01-20T00:03:41.534Z,16.30
2023-01-20T00:06:09.565Z,19.40
2023-01-20T00:08:36.622Z,22.70
2023-01-20T00:11:07.882Z,23.30
2023-01-20T00:13:35.950Z,22.00
2023-01-20T00:16:07.575Z,19.60
2023-01-20T00:18:35.265Z,22.50
2023-01-20T00:21:06.654Z,23.80
2023-01-20T00:23:33.800Z,20.60
2023-01-20T00:26:09.000Z,21.10
2023-01-20T00:28:36.179Z,19.00
2023-01-20T00:31:20.368Z,23.10
2023-01-20T00:33:48.165Z,30.10
2023-01-20T00:36:15.974Z,27.00
2023-01-20T00:38:43.191Z,26.20
2023-01-20T00:41:10.494Z,25.40
2023-01-20T00:43:37.674Z,29.90
2023-01-20T00:46:05.048Z,28.40
2023-01-20T00:48:32.229Z,24.60
2023-01-20T00:50:59.382Z,19.80
2023-01-20T00:53:26.622Z,20.60
2023-01-20T00:55:53.743Z,25.30
2023-01-20T00:58:20.798Z,21.50
2023-01-20T01:00:48.812Z,22.40
2023-01-20T01:03:16.127Z,24.40
2023-01-20T01:05:43.679Z,25.10
2023-01-20T01:08:12.595Z,32.50
2023-01-20T01:10:40.544Z,25.00
2023-01-20T01:13:07.684Z,22.50
2023-01-20T01:15:34.713Z,20.50
2023-01-20T01:18:01.795Z,23.40
2023-01-20T01:20:29.164Z,28.20
2023-01-20T01:22:56.281Z,21.10
2023-01-20T01:25:23.475Z,23.60
2023-01-20T01:27:50.501Z,17.60
2023-01-20T01:30:17.655Z,21.40
2023-01-20T01:32:44.684Z,26.30
2023-01-20T01:35:12.268Z,23.00
2023-01-20T01:37:39.590Z,18.70
2023-01-20T01:40:07.780Z,17.50
2023-01-20T01:42:34.846Z,24.00
2023-01-20T01:45:11.490Z,20.70
2023-01-20T01:47:42.757Z,21.00
2023-01-20T01:50:12.678Z,25.40
2023-01-20T01:52:40.423Z,20.40
2023-01-20T01:55:07.855Z,21.10
2023-01-20T01:57:34.805Z,22.00
2023-01-20T02:00:02.624Z,22.90
2023-01-20T02:02:41.717Z,23.60
2023-01-20T02:05:09.317Z,21.80
2023-01-20T02:07:36.396Z,23.70
2023-01-20T02:10:03.558Z,17.40
2023-01-20T02:12:30.558Z,24.00
2023-01-20T02:14:58.850Z,25.00
2023-01-20T02:17:55.529Z,22.50
2023-01-20T02:20:25.522Z,23.80
2023-01-20T02:23:11.434Z,21.50
2023-01-20T02:26:20.302Z,24.70
2023-01-20T02:29:25.281Z,19.80
2023-01-20T02:32:09.206Z,22.10
2023-01-20T02:35:12.296Z,19.60
2023-01-20T02:37:43.505Z,18.40
2023-01-20T02:40:29.567Z,23.80
2023-01-20T02:43:30.029Z,19.80
2023-01-20T02:46:04.244Z,21.10
2023-01-20T02:48:40.080Z,20.90
2023-01-20T02:51:13.862Z,14.10
2023-01-20T02:54:11.500Z,18.30
2023-01-20T02:56:38.549Z,19.50
2023-01-20T02:59:09.014Z,17.70
2023-01-20T03:01:49.973Z,18.10
2023-01-20T03:04:20.033Z,20.60
2023-01-20T03:06:48.703Z,17.30
2023-01-20T03:09:18.825Z,18.40
2023-01-20T03:11:51.871Z,17.80
2023-01-20T03:14:18.948Z,19.10
2023-01-20T03:16:48.499Z,17.30
2023-01-20T03:19:15.491Z,20.30
2023-01-20T03:21:42.489Z,17.30
2023-01-20T03:24:09.550Z,17.90
2023-01-20T03:26:37.084Z,21.40
2023-01-20T03:29:09.652Z,19.00
2023-01-20T03:31:41.583Z,14.20
2023-01-20T03:36:38.591Z,15.60
2023-01-20T03:39:07.205Z,15.30
2023-01-20T03:41:43.347Z,16.40
2023-01-20T03:44:16.928Z,17.90
2023-01-20T03:47:20.537Z,19.20
2023-01-20T03:50:03.055Z,17.70
2023-01-20T03:52:46.560Z,16.20
2023-01-20T03:55:51.240Z,18.40
2023-01-20T03:58:21.436Z,16.20
2023-01-20T04:00:49.153Z,15.40
2023-01-20T04:03:21.909Z,13.20
2023-01-20T04:05:49.090Z,16.60
2023-01-20T04:08:17.247Z,17.30
2023-01-20T04:10:45.686Z,15.30
2023-01-20T04:13:12.730Z,18.80
2023-01-20T04:15:42.455Z,16.10
2023-01-20T04:18:16.176Z,16.10
2023-01-20T04:20:44.538Z,19.10
2023-01-20T04:23:32.832Z,13.30
2023-01-20T04:25:59.870Z,20.40
2023-01-20T04:28:26.945Z,16.90
2023-01-20T04:30:54.128Z,16.10
2023-01-20T04:33:21.357Z,13.60
2023-01-20T04:35:48.363Z,16.40
2023-01-20T04:38:15.503Z,16.80
2023-01-20T04:40:42.553Z,17.90
2023-01-20T04:43:10.481Z,15.50
2023-01-20T04:45:37.452Z,17.30
2023-01-20T04:48:08.657Z,14.90
2023-01-20T04:50:42.143Z,16.40
2023-01-20T04:53:13.938Z,20.50
2023-01-20T04:55:40.944Z,14.90
2023-01-20T04:58:10.000Z,14.00
2023-01-20T05:00:37.083Z,14.70
2023-01-20T05:03:04.166Z,14.90
2023-01-20T05:05:31.354Z,16.80
2023-01-20T05:07:59.810Z,16.10
2023-01-20T05:10:26.810Z,10.50
2023-01-20T05:12:53.814Z,13.20
2023-01-20T05:15:20.817Z,12.10
2023-01-20T05:17:47.781Z,12.70
2023-01-20T05:32:34.907Z,15.10
2023-01-20T05:35:02.491Z,19.60
2023-01-20T05:37:29.531Z,15.00
2023-01-20T05:39:58.683Z,12.90
2023-01-20T05:42:25.655Z,13.10
2023-01-20T05:44:54.884Z,14.00
2023-01-20T05:47:21.878Z,14.50
2023-01-20T05:49:48.899Z,13.60
2023-01-20T05:52:15.891Z,12.00
2023-01-20T05:54:42.833Z,15.90
2023-01-20T05:57:09.845Z,15.00
2023-01-20T05:59:37.052Z,13.10
2023-01-20T06:02:04.066Z,16.70
2023-01-20T06:04:31.087Z,16.90
2023-01-20T06:06:58.065Z,11.50
2023-01-20T06:09:25.065Z,18.40
2023-01-20T06:11:52.009Z,14.00
2023-01-20T06:14:19.108Z,14.90
2023-01-20T06:16:46.172Z,14.00
2023-01-20T06:19:13.422Z,14.60
2023-01-20T06:21:40.405Z,19.80
2023-01-20T06:24:08.565Z,18.80
2023-01-20T06:26:35.581Z,14.80
2023-01-20T06:29:02.622Z,14.10
2023-01-20T06:31:29.665Z,13.60
2023-01-20T06:33:56.787Z,19.20
2023-01-20T06:36:23.784Z,22.20
2023-01-20T06:38:51.256Z,15.10
2023-01-20T06:41:18.908Z,18.90
2023-01-20T06:43:45.921Z,14.30
2023-01-20T06:46:14.384Z,13.50
2023-01-20T06:48:42.150Z,14.50
2023-01-20T06:51:14.335Z,14.20
2023-01-20T06:53:41.451Z,14.70
2023-01-20T06:56:14.056Z,17.80
2023-01-20T06:58:41.116Z,17.00
2023-01-20T07:01:14.215Z,13.40
2023-01-20T07:03:44.748Z,15.80
2023-01-20T07:06:28.995Z,13.10
2023-01-20T07:08:58.553Z,14.60
2023-01-20T07:11:26.446Z,12.50
2023-01-20T07:13:53.383Z,14.90
2023-01-20T07:16:20.492Z,14.30
2023-01-20T07:18:48.604Z,16.80
2023-01-20T07:21:15.613Z,14.60
2023-01-20T07:23:42.644Z,14.10
2023-01-20T07:26:11.066Z,14.50
2023-01-20T07:28:38.188Z,15.00
2023-01-20T07:31:09.472Z,16.40
2023-01-20T07:33:36.660Z,14.00
2023-01-20T07:36:04.122Z,13.20
2023-01-20T07:38:31.094Z,13.80
2023-01-20T07:41:04.708Z,10.90
2023-01-20T07:43:32.149Z,15.70
2023-01-20T07:46:03.347Z,15.90
2023-01-20T07:48:31.659Z,17.10
2023-01-20T07:51:03.386Z,16.50
2023-01-20T07:53:30.914Z,13.50
2023-01-20T07:56:01.061Z,13.90
2023-01-20T07:58:29.164Z,19.70
2023-01-20T08:00:57.973Z,15.70
2023-01-20T08:03:27.344Z,18.50
2023-01-20T08:05:54.455Z,14.60
2023-01-20T08:08:21.482Z,18.20
2023-01-20T08:10:54.369Z,15.50
2023-01-20T08:13:21.397Z,15.90
2023-01-20T08:15:48.361Z,17.20
2023-01-20T08:18:15.360Z,18.60
2023-01-20T08:20:43.635Z,17.50
2023-01-20T08:23:10.581Z,16.20
2023-01-20T08:25:37.649Z,16.30
2023-01-20T08:28:05.580Z,14.40
2023-01-20T08:30:32.810Z,17.60
2023-01-20T08:33:00.000Z,15.70
2023-01-20T08:35:27.075Z,20.80
2023-01-20T08:37:54.028Z,17.40
2023-01-20T08:40:21.118Z,18.50
2023-01-20T08:42:48.127Z,17.90
2023-01-20T08:45:15.377Z,17.50
2023-01-20T08:47:46.296Z,15.50
2023-01-20T08:50:14.360Z,15.50
2023-01-20T08:52:42.255Z,14.00
2023-01-20T08:55:09.810Z,17.70
2023-01-20T08:57:36.898Z,15.80
2023-01-20T09:00:05.727Z,15.00
2023-01-20T09:02:32.728Z,13.80
2023-01-20T09:05:00.090Z,17.20
2023-01-20T09:07:27.418Z,16.80
2023-01-20T09:09:54.412Z,17.80
2023-01-20T09:12:21.401Z,13.40
2023-01-20T09:14:48.467Z,16.60
2023-01-20T09:17:15.415Z,16.80
2023-01-20T09:19:42.403Z,18.50
2023-01-20T09:22:09.370Z,13.20
2023-01-20T09:24:36.365Z,13.20
2023-01-20T09:27:03.464Z,15.70
2023-01-20T09:29:30.503Z,15.90
2023-01-20T09:32:00.457Z,16.80
2023-01-20T09:34:29.644Z,13.60
2023-01-20T09:36:58.474Z,13.90
2023-01-20T09:39:44.103Z,11.30
2023-01-20T09:42:58.727Z,14.20
2023-01-20T09:45:33.254Z,14.40
2023-01-20T09:48:35.511Z,15.60
2023-01-20T09:51:22.553Z,13.40
2023-01-20T09:54:00.772Z,19.30
2023-01-20T09:56:27.865Z,12.40
2023-01-20T09:59:02.359Z,11.80
2023-01-20T10:01:39.202Z,13.30
2023-01-20T10:04:12.433Z,12.70
2023-01-20T10:06:57.663Z,15.00
2023-01-20T10:09:36.608Z,15.80
2023-01-20T10:12:11.512Z,13.50
2023-01-20T10:14:55.525Z,14.70
2023-01-20T10:17:31.167Z,12.50
2023-01-20T10:20:16.088Z,18.50
2023-01-20T10:22:47.049Z,11.60
2023-01-20T10:25:28.807Z,18.40
2023-01-20T10:27:58.212Z,13.10
2023-01-20T10:30:26.984Z,12.90
2023-01-20T10:33:10.269Z,13.30
2023-01-20T10:35:52.092Z,13.60
2023-01-20T10:38:22.173Z,13.30
2023-01-20T10:40:56.001Z,12.10
2023-01-20T10:43:23.015Z,12.80
2023-01-20T10:46:17.601Z,14.90
2023-01-20T10:49:19.194Z,12.70
2023-01-20T10:51:48.290Z,14.30
2023-01-20T10:54:37.540Z,12.00
2023-01-20T10:57:06.241Z,13.00
2023-01-20T10:59:44.972Z,13.80
2023-01-20T11:02:26.027Z,11.20
2023-01-20T11:05:19.950Z,14.70
2023-01-20T11:07:47.256Z,13.00
2023-01-20T11:10:22.207Z,14.70
2023-01-20T11:12:52.253Z,14.30
2023-01-20T11:15:23.392Z,11.30
2023-01-20T11:18:16.200Z,8.70
2023-01-20T11:20:48.102Z,12.60
2023-01-20T11:23:39.679Z,11.70
2023-01-20T11:26:28.037Z,10.80
2023-01-20T11:28:58.492Z,11.20
2023-01-20T11:32:04.326Z,10.90
2023-01-20T11:34:35.772Z,8.90
2023-01-20T11:37:05.477Z,11.20
2023-01-20T11:39:45.250Z,9.40
2023-01-20T11:42:16.586Z,9.80
2023-01-20T11:45:19.831Z,9.10
2023-01-20T11:48:19.531Z,11.90
2023-01-20T11:50:58.569Z,10.30
2023-01-20T11:53:27.655Z,12.40
2023-01-20T11:55:59.597Z,10.70
2023-01-20T12:01:05.730Z,9.80
2023-01-20T12:03:54.751Z,7.30
2023-01-20T12:19:02.272Z,8.40
2023-01-20T12:21:35.026Z,11.30
2023-01-20T12:24:42.385Z,9.10
2023-01-20T12:27:14.003Z,12.00
2023-01-20T12:29:44.976Z,9.20
2023-01-20T12:32:11.995Z,10.10
2023-01-20T12:34:39.020Z,6.40
2023-01-20T12:37:45.366Z,8.20
2023-01-20T12:40:38.521Z,7.00
2023-01-20T12:43:24.313Z,10.40
2023-01-20T12:46:36.387Z,9.10
2023-01-20T12:49:32.732Z,6.80
2023-01-20T12:52:25.764Z,9.30
2023-01-20T12:55:26.451Z,9.40
2023-01-20T12:57:56.618Z,8.70
2023-01-20T13:00:36.013Z,6.20
2023-01-20T13:03:15.411Z,8.20
2023-01-20T13:06:19.981Z,7.50
2023-01-20T13:09:21.727Z,9.30
2023-01-20T13:12:03.351Z,6.40
2023-01-20T13:15:18.495Z,8.90
2023-01-20T13:18:01.243Z,8.30
2023-01-20T13:20:28.705Z,6.80
2023-01-20T13:22:56.400Z,10.30
2023-01-20T13:25:23.519Z,7.70
2023-01-20T13:27:51.834Z,8.40
2023-01-20T13:30:37.560Z,6.90
2023-01-20T13:33:08.625Z,9.60
2023-01-20T13:35:49.972Z,9.50
2023-01-20T13:38:33.247Z,8.10
2023-01-20T13:41:03.634Z,7.60
2023-01-20T13:43:49.311Z,8.80
2023-01-20T13:46:17.186Z,7.10
2023-01-20T13:49:06.329Z,10.10
2023-01-20T13:51:36.359Z,7.70
2023-01-20T13:54:25.622Z,7.80
2023-01-20T13:56:52.881Z,8.90
2023-01-20T13:59:20.072Z,8.00
2023-01-20T14:01:47.107Z,7.40
2023-01-20T14:04:19.073Z,8.90
2023-01-20T14:09:23.930Z,11.00
2023-01-20T14:11:55.612Z,9.50
2023-01-20T14:14:24.741Z,10.90
2023-01-20T14:16:52.481Z,11.90
2023-01-20T14:19:34.161Z,13.30
2023-01-20T14:22:16.857Z,11.90
2023-01-20T14:24:45.208Z,11.20
2023-01-20T14:27:23.420Z,11.70
2023-01-20T14:29:52.251Z,13.60
2023-01-20T14:32:25.920Z,12.70
2023-01-20T14:34:53.050Z,12.80
2023-01-20T14:37:34.668Z,12.30
2023-01-20T14:40:31.194Z,13.50
2023-01-20T14:43:08.149Z,12.20
2023-01-20T14:45:35.450Z,13.90
2023-01-20T14:48:02.896Z,13.50
2023-01-20T14:50:30.281Z,12.20
2023-01-20T14:52:57.310Z,12.10
2023-01-20T14:55:37.087Z,13.80
2023-01-20T14:58:13.860Z,12.40
2023-01-20T15:00:48.044Z,14.10
2023-01-20T15:03:17.297Z,13.80
2023-01-20T15:06:00.666Z,14.10
2023-01-20T15:08:42.937Z,13.50
2023-01-20T15:11:14.347Z,12.10
2023-01-20T15:13:45.036Z,15.10
2023-01-20T15:16:29.002Z,14.00
2023-01-20T15:19:20.904Z,15.70
2023-01-20T15:21:49.413Z,11.70
2023-01-20T15:24:21.096Z,14.50
2023-01-20T15:29:22.825Z,12.60
2023-01-20T15:31:50.527Z,13.70
2023-01-20T15:34:18.181Z,13.30
2023-01-20T15:36:45.947Z,13.30
2023-01-20T15:39:23.150Z,13.30
2023-01-20T15:41:55.991Z,14.10
2023-01-20T15:44:24.644Z,13.50
2023-01-20T15:46:52.067Z,13.90
2023-01-20T15:49:19.143Z,14.90
2023-01-20T15:51:46.318Z,15.30
2023-01-20T15:54:16.185Z,16.00
2023-01-20T15:56:43.330Z,15.00
2023-01-20T15:59:22.712Z,15.50
2023-01-20T16:01:50.610Z,15.90
2023-01-20T16:04:17.744Z,16.50
2023-01-20T16:06:44.718Z,17.90
2023-01-20T16:09:27.671Z,17.90
2023-01-20T16:11:54.741Z,17.70
2023-01-20T16:14:22.114Z,17.90
2023-01-20T16:16:49.106Z,17.30
2023-01-20T16:19:16.085Z,18.50
2023-01-20T16:21:45.382Z,17.80
2023-01-20T16:24:12.862Z,19.40
2023-01-20T16:26:39.809Z,21.80
2023-01-20T16:29:08.847Z,21.80
2023-01-20T16:31:35.970Z,20.00
2023-01-20T16:34:04.520Z,19.90
2023-01-20T16:36:31.507Z,17.00
2023-01-20T16:38:58.484Z,17.70
2023-01-20T16:41:30.743Z,19.80
2023-01-20T16:43:58.685Z,18.70
2023-01-20T16:46:29.611Z,19.30
2023-01-20T16:49:05.401Z,18.10
2023-01-20T16:51:32.847Z,18.50
2023-01-20T16:53:59.901Z,19.20
2023-01-20T16:56:28.711Z,20.00
2023-01-20T16:58:57.946Z,18.00
2023-01-20T17:01:25.417Z,17.40
2023-01-20T17:03:55.027Z,21.60
2023-01-20T17:06:23.941Z,20.80
2023-01-20T17:08:53.719Z,17.50
2023-01-20T17:11:41.451Z,16.80
2023-01-20T17:14:09.651Z,17.90
2023-01-20T17:16:36.882Z,19.30
2023-01-20T17:19:04.029Z,18.20
2023-01-20T17:21:32.495Z,19.90
2023-01-20T17:24:01.069Z,19.50
2023-01-20T17:26:28.161Z,19.00
2023-01-20T17:28:56.038Z,20.50
2023-01-20T17:31:23.333Z,21.00
2023-01-20T17:33:51.196Z,18.30
2023-01-20T17:36:21.469Z,18.20
2023-01-20T17:38:48.569Z,17.60
2023-01-20T17:41:17.323Z,19.40
2023-01-20T17:43:48.255Z,18.50
2023-01-20T17:46:18.771Z,18.30
2023-01-20T17:48:47.001Z,20.00
2023-01-20T17:51:18.960Z,18.90
2023-01-20T17:56:13.956Z,18.80
2023-01-20T17:58:42.404Z,18.30
2023-01-20T18:01:29.183Z,17.90
2023-01-20T18:03:56.863Z,18.60
2023-01-20T18:06:24.622Z,19.10
2023-01-20T18:08:56.666Z,18.40
2023-01-20T18:13:52.357Z,20.70
2023-01-20T18:16:20.588Z,18.80
2023-01-20T18:18:47.953Z,19.50
2023-01-20T18:21:20.434Z,22.20
2023-01-20T18:23:48.322Z,20.60
2023-01-20T18:26:16.523Z,20.10
2023-01-20T18:28:43.653Z,20.50
2023-01-20T18:31:15.237Z,19.70
2023-01-20T18:33:47.728Z,22.10
2023-01-20T18:36:17.557Z,23.50
2023-01-20T18:38:48.642Z,23.80
2023-01-20T18:41:15.641Z,21.60
2023-01-20T18:43:42.593Z,22.10
2023-01-20T18:46:09.876Z,22.40
2023-01-20T18:48:40.937Z,28.30
2023-01-20T18:51:08.730Z,23.90
2023-01-20T18:53:35.885Z,28.80
2023-01-20T18:56:04.915Z,28.00
2023-01-20T18:58:33.280Z,25.20
2023-01-20T19:01:11.121Z,28.00
2023-01-20T19:03:38.947Z,27.00
2023-01-20T19:06:13.157Z,28.00
2023-01-20T19:08:40.539Z,28.70
2023-01-20T19:11:15.967Z,26.40
2023-01-20T19:13:43.964Z,27.50
2023-01-20T19:16:13.316Z,30.40
2023-01-20T19:18:41.431Z,27.20
2023-01-20T19:21:13.499Z,29.20
2023-01-20T19:26:10.025Z,28.50
2023-01-20T19:28:37.109Z,31.20
2023-01-20T19:31:08.282Z,30.40
2023-01-20T19:33:35.928Z,29.10
2023-01-20T19:36:04.815Z,31.90
2023-01-20T19:38:31.979Z,31.60
2023-01-20T19:41:09.934Z,30.20
2023-01-20T19:43:37.247Z,33.30
2023-01-20T19:46:11.529Z,33.80
2023-01-20T19:48:38.830Z,31.10
2023-01-20T19:51:07.830Z,35.00
2023-01-20T19:53:35.054Z,33.20
2023-01-20T19:56:09.789Z,36.00
2023-01-20T19:58:37.081Z,33.50
2023-01-20T20:01:13.822Z,35.10
2023-01-20T20:03:41.168Z,36.30
2023-01-20T20:06:08.903Z,38.10
2023-01-20T20:08:36.744Z,34.10
2023-01-20T20:23:30.440Z,36.40
2023-01-20T20:25:57.839Z,33.00
2023-01-20T20:28:29.136Z,38.60
2023-01-20T20:31:04.041Z,33.60
2023-01-20T20:33:31.082Z,38.80
2023-01-20T20:35:58.368Z,36.40
2023-01-20T20:38:25.471Z,37.40
2023-01-20T20:40:59.263Z,36.70
2023-01-20T20:43:26.529Z,38.00
2023-01-20T20:45:53.565Z,36.90
2023-01-20T20:48:20.781Z,35.90
2023-01-20T20:50:47.909Z,36.40
2023-01-20T20:53:15.396Z,35.50
2023-01-20T20:55:42.799Z,36.10
2023-01-20T20:58:09.884Z,35.60
2023-01-20T21:00:37.669Z,38.80
2023-01-20T21:03:07.655Z,35.90
2023-01-20T21:05:35.545Z,36.30
2023-01-20T21:08:06.249Z,37.20
2023-01-20T21:10:33.406Z,35.40
2023-01-20T21:13:00.418Z,36.40
2023-01-20T21:15:27.487Z,36.20
2023-01-20T21:17:54.543Z,39.60
2023-01-20T21:20:22.071Z,35.10
2023-01-20T21:22:49.131Z,36.60
2023-01-20T21:25:17.992Z,36.50
2023-01-20T21:27:45.034Z,39.00
2023-01-20T21:30:13.630Z,36.20
2023-01-20T21:32:42.103Z,38.40
2023-01-20T21:35:09.874Z,35.30
2023-01-20T21:37:37.465Z,37.30
2023-01-20T21:40:06.106Z,36.30
2023-01-20T21:42:33.117Z,40.10
2023-01-20T21:45:00.727Z,35.60
2023-01-20T21:47:28.374Z,43.30
2023-01-20T21:50:14.232Z,38.00
2023-01-20T21:52:41.521Z,36.80
2023-01-20T21:55:13.110Z,39.20
2023-01-20T21:57:40.127Z,42.00
2023-01-20T22:00:08.836Z,36.30
2023-01-20T22:02:39.467Z,36.70
2023-01-20T22:05:11.134Z,42.80
2023-01-20T22:07:39.824Z,34.40
2023-01-20T22:10:08.392Z,35.50
2023-01-20T22:12:35.882Z,39.40
2023-01-20T22:15:03.643Z,36.90
2023-01-20T22:17:30.750Z,41.20
2023-01-20T22:19:59.648Z,37.40
2023-01-20T22:22:28.793Z,36.70
2023-01-20T22:24:55.963Z,39.50
2023-01-20T22:27:23.057Z,40.80
2023-01-20T22:29:50.058Z,40.80
2023-01-20T22:32:17.006Z,39.80
2023-01-20T22:34:44.040Z,39.00
2023-01-20T22:37:11.106Z,42.30
2023-01-20T22:39:38.105Z,40.80
2023-01-20T22:42:05.128Z,41.20
2023-01-20T22:44:32.165Z,39.30
2023-01-20T22:46:59.441Z,44.20
2023-01-20T22:49:26.534Z,43.40
2023-01-20T22:51:55.429Z,44.20
2023-01-20T22:54:22.451Z,42.10
2023-01-20T22:56:49.444Z,44.80
2023-01-20T22:59:16.429Z,45.90
2023-01-20T23:01:46.356Z,40.10
2023-01-20T23:04:13.369Z,45.40
2023-01-20T23:06:42.481Z,47.30
2023-01-20T23:09:11.352Z,50.80
2023-01-20T23:11:40.365Z,46.60
2023-01-20T23:14:09.883Z,44.70
2023-01-20T23:16:36.963Z,46.90
2023-01-20T23:19:04.652Z,49.30
2023-01-20T23:21:31.810Z,47.90
2023-01-20T23:23:58.949Z,46.20
2023-01-20T23:26:28.629Z,52.80
2023-01-20T23:28:56.362Z,50.50
2023-01-20T23:31:25.385Z,52.40
2023-01-20T23:33:53.660Z,50.90
2023-01-20T23:36:25.158Z,51.60
2023-01-20T23:38:55.996Z,40.90
2023-01-20T23:41:23.143Z,55.10
2023-01-20T23:43:50.144Z,51.60
2023-01-20T23:46:17.185Z,49.80
2023-01-20T23:48:47.456Z,49.30
2023-01-20T23:51:14.736Z,51.60
2023-01-20T23:53:41.877Z,56.50
2023-01-20T23:56:19.746Z,48.10
2023-01-20T23:58:46.847Z,51.40
